Flight Track Log - Related Links

Times and Time Zones

All times are in EDT time to prevent confusion due to time zone crossing. See the SWA318 flight status page for this flight to view local times or setup timezone preferences in your user account.

Time Position Orientation Groundspeed Altitude Reporting Facility
EDT Latitude Longitude Course Direction KTS MPH feet Rate Location/Type
Tue 08:29:14 AM 42.9667 -87.8833 340° North 160 184 1,800  Level KMKE
Tue 08:29:50 AM 43.0000 -87.9000 340° North 203 234 2,300 2,350 Climbing KMKE
Tue 08:31:37 AM 43.0425 -88.0342 293° West 239 275 7,400 2,536 Climbing Chicago Center
Tue 08:32:38 AM 43.0903 -88.1117 310° West 266 306 9,400 2,244 Climbing Chicago Center
Tue 08:33:40 AM 43.1247 -88.2092 296° West 289 333 12,000 2,390 Climbing Chicago Center
Tue 08:34:41 AM 43.1244 -88.3283 270° West 313 360 14,300 2,244 Climbing Chicago Center
Tue 08:35:43 AM 43.1272 -88.4533 272° West 323 372 16,600 2,341 Climbing Chicago Center
Tue 08:36:44 AM 43.0997 -88.5703 252° West 328 377 19,100 2,146 Climbing Chicago Center
Tue 08:37:46 AM 43.0636 -88.6825 246° West 321 369 21,000 2,000 Climbing Chicago Center
Tue 08:38:47 AM 43.0269 -88.7978 247° West 328 377 23,200 1,951 Climbing Chicago Center
Tue 08:39:49 AM 42.9861 -88.9292 247° West 322 371 25,000 1,500 Climbing Chicago Center
Tue 08:40:51 AM 42.9489 -89.0464 247° West 333 383 26,300 1,317 Climbing Chicago Center
Tue 08:41:52 AM 42.9094 -89.1686 246° West 348 400 27,700 1,073 Climbing Chicago Center
Tue 08:42:54 AM 42.8686 -89.2950 246° West 361 415 28,500 537 Climbing Chicago Center
Tue 08:43:55 AM 42.8239 -89.4333 246° West 393 452 28,800 439 Climbing Chicago Center
Tue 08:44:57 AM 42.7753 -89.5803 246° West 419 482 29,400 1,073 Climbing Chicago Center
Tue 08:45:58 AM 42.7278 -89.7275 246° West 425 489 31,000 1,366 Climbing Chicago Center
Tue 08:47:00 AM 42.6747 -89.8964 247° West 417 480 32,200 927 Climbing Chicago Center
Tue 08:48:01 AM 42.6603 -90.0328 262° West 425 489 32,900 829 Climbing Chicago Center
Tue 08:49:03 AM 42.6411 -90.1906 261° West 427 491 33,900 1,306 Climbing Chicago Center
Tue 08:50:05 AM 42.6192 -90.3767 261° West 420 483 35,600 1,024 Climbing Chicago Center
Tue 08:51:06 AM 42.6017 -90.5261 261° West 408 470 36,000 195 Climbing Chicago Center
Tue 08:52:08 AM 42.5778 -90.6739 258° West 404 465 36,000  Level Chicago Center
Tue 08:53:09 AM 42.5261 -90.8092 243° Southwest 405 466 36,000  Level Chicago Center
Tue 08:54:11 AM 42.4767 -90.9439 244° Southwest 401 461 36,000  Level Chicago Center
Tue 08:55:13 AM 42.4275 -91.0789 244° Southwest 401 461 36,000  Level Chicago Center
Tue 08:56:14 AM 42.3775 -91.2150 244° Southwest 404 465 36,000  Level Chicago Center
Tue 08:57:16 AM 42.3167 -91.3769 243° Southwest 404 465 36,000  Level Chicago Center
Tue 08:58:17 AM 42.2664 -91.5133 244° Southwest 406 467 36,000  Level Chicago Center
Tue 08:59:19 AM 42.2150 -91.6475 243° Southwest 404 465 36,000  Level Chicago Center
Tue 09:00:20 AM 42.1650 -91.7831 244° Southwest 405 466 36,000  Level Chicago Center
Tue 09:01:22 AM 42.1144 -91.9172 243° Southwest 402 463 36,000  Level Chicago Center
Tue 09:02:24 AM 42.0628 -92.0503 242° Southwest 403 464 36,000  Level Chicago Center
Tue 09:03:25 AM 42.0128 -92.1836 243° Southwest 403 464 36,000  Level Chicago Center
Tue 09:04:27 AM 41.9517 -92.3425 243° Southwest 402 463 36,000  Level Chicago Center
Tue 09:05:28 AM 41.9006 -92.4750 243° Southwest 402 463 36,000  Level Chicago Center
Tue 09:06:30 AM 41.8492 -92.6072 242° Southwest 403 464 36,000  Level Chicago Center
Tue 09:06:45 AM 41.8383 -92.6353 243° Southwest 402 463 36,000  Level Minneapolis Center
Tue 09:07:47 AM 41.7881 -92.7686 243° Southwest 403 464 36,000  Level Minneapolis Center
Tue 09:08:48 AM 41.7361 -92.8975 242° Southwest 401 461 36,000  Level Minneapolis Center
Tue 09:09:49 AM 41.6744 -93.0547 242° Southwest 401 461 36,000  Level Minneapolis Center
Tue 09:10:50 AM 41.6214 -93.1883 242° Southwest 406 467 36,000  Level Minneapolis Center
Tue 09:11:51 AM 41.5683 -93.3233 242° Southwest 412 474 36,000  Level Minneapolis Center
Tue 09:12:53 AM 41.5156 -93.4558 242° Southwest 411 473 36,000  Level Minneapolis Center
Tue 09:13:54 AM 41.4647 -93.5869 243° Southwest 405 466 36,000  Level Minneapolis Center
Tue 09:14:55 AM 41.4131 -93.7244 243° Southwest 409 471 36,000  Level Minneapolis Center
Tue 09:15:56 AM 41.3581 -93.8614 242° Southwest 416 479 36,000  Level Minneapolis Center
Tue 09:16:58 AM 41.2928 -94.0150 241° Southwest 413 475 36,000  Level Minneapolis Center
Tue 09:17:59 AM 41.2400 -94.1450 242° Southwest 407 468 36,000  Level Minneapolis Center
Tue 09:19:00 AM 41.1881 -94.2839 244° Southwest 413 475 36,000  Level Minneapolis Center
Tue 09:20:01 AM 41.1697 -94.4350 261° West 420 483 36,000  Level Minneapolis Center
Tue 09:21:03 AM 41.1542 -94.5847 262° West 412 474 36,000  Level Minneapolis Center
Tue 09:22:04 AM 41.1378 -94.7328 262° West 408 470 36,000  Level Minneapolis Center
Tue 09:23:05 AM 41.1208 -94.8819 261° West 408 470 36,000  Level Minneapolis Center
Tue 09:24:06 AM 41.1031 -95.0319 261° West 411 473 36,000  Level Minneapolis Center
Tue 09:25:07 AM 41.0856 -95.1819 261° West 411 473 36,000  Level Minneapolis Center
Tue 09:26:09 AM 41.0681 -95.3317 261° West 411 473 36,000  Level Minneapolis Center
Tue 09:27:10 AM 41.0494 -95.4825 261° West 413 475 36,000  Level Minneapolis Center
Tue 09:28:11 AM 41.0311 -95.6333 261° West 412 474 36,000  Level Minneapolis Center
Tue 09:29:12 AM 41.0094 -95.8117 261° West 408 470 36,000  Level Minneapolis Center
Tue 09:30:13 AM 40.9903 -95.9622 260° West 409 471 36,000  Level Minneapolis Center
Tue 09:31:15 AM 40.9717 -96.1117 261° West 409 471 36,000  Level Minneapolis Center
Tue 09:32:16 AM 40.9542 -96.2606 261° West 407 468 36,000  Level Minneapolis Center
Tue 09:33:17 AM 40.9353 -96.4083 260° West 406 467 36,000  Level Minneapolis Center
Tue 09:34:18 AM 40.9156 -96.5556 260° West 406 467 36,000  Level Minneapolis Center
Tue 09:35:20 AM 40.8964 -96.7022 260° West 405 466 36,000  Level Minneapolis Center
Tue 09:36:21 AM 40.8778 -96.8489 261° West 404 465 36,000  Level Minneapolis Center
Tue 09:37:22 AM 40.8578 -96.9933 260° West 402 463 36,000  Level Minneapolis Center
Tue 09:38:35 AM 40.8347 -97.1692 260° West 404 465 36,000  Level Minneapolis Center
Tue 09:39:37 AM 40.8153 -97.3133 260° West 400 460 36,000  Level Minneapolis Center
Tue 09:40:38 AM 40.7936 -97.4628 259° West 401 461 36,000  Level Minneapolis Center
Tue 09:41:39 AM 40.7742 -97.6078 260° West 401 461 36,000  Level Minneapolis Center
Tue 09:42:40 AM 40.7544 -97.7547 260° West 404 465 36,000  Level Minneapolis Center
Tue 09:43:42 AM 40.7336 -97.9019 259° West 406 467 36,000  Level Minneapolis Center
Tue 09:44:43 AM 40.7119 -98.0506 259° West 409 471 36,000  Level Minneapolis Center
Tue 09:45:44 AM 40.6858 -98.2300 259° West 413 475 36,000  Level Minneapolis Center
Tue 09:46:45 AM 40.6636 -98.3814 259° West 417 480 36,000  Level Minneapolis Center
Tue 09:47:47 AM 40.6419 -98.5314 259° West 415 478 36,000  Level Minneapolis Center
Tue 09:48:48 AM 40.6200 -98.6806 259° West 413 475 36,000  Level Minneapolis Center
Tue 09:49:49 AM 40.5969 -98.8286 258° West 411 473 36,000  Level Minneapolis Center
Tue 09:50:50 AM 40.5753 -98.9758 259° West 408 470 36,000  Level Minneapolis Center
Tue 09:51:51 AM 40.5533 -99.1214 259° West 405 466 36,000  Level Minneapolis Center
Tue 09:52:52 AM 40.5314 -99.2658 259° West 402 463 36,000  Level Minneapolis Center
Tue 09:53:47 AM 40.5133 -99.3814 258° West 401 461 36,000  Level Denver Center
Tue 09:54:48 AM 40.4869 -99.5525 259° West 397 457 36,000  Level Denver Center
Tue 09:55:49 AM 40.4639 -99.6928 258° West 392 451 36,000  Level Denver Center
Tue 09:56:50 AM 40.4419 -99.8328 258° West 391 450 36,000  Level Denver Center
Tue 09:57:51 AM 40.4211 -99.9564 258° West 391 450 36,000  Level Denver Center
Tue 09:58:52 AM 40.3964 -100.1156 259° West 397 457 36,000  Level Denver Center
Tue 09:59:54 AM 40.3744 -100.2494 258° West 393 452 36,000  Level Denver Center
Tue 10:00:57 AM 40.3481 -100.4053 258° West 391 450 36,000  Level Denver Center
Tue 10:01:58 AM 40.3269 -100.5400 258° West 392 451 36,000  Level Denver Center
Tue 10:03:00 AM 40.3036 -100.6747 257° West 393 452 36,000  Level Denver Center
Tue 10:04:01 AM 40.2772 -100.8325 258° West 395 455 36,000  Level Denver Center
Tue 10:05:02 AM 40.2544 -100.9686 258° West 397 457 36,000  Level Denver Center
Tue 10:06:03 AM 40.2300 -101.1033 257° West 397 457 36,000  Level Denver Center
Tue 10:07:04 AM 40.2028 -101.2622 257° West 399 459 36,000  Level Denver Center
Tue 10:08:05 AM 40.1792 -101.3975 257° West 399 459 36,000  Level Denver Center
Tue 10:09:07 AM 40.1519 -101.5569 257° West 402 463 36,000  Level Denver Center
Tue 10:10:08 AM 40.1267 -101.6947 257° West 407 468 36,000  Level Denver Center
Tue 10:11:09 AM 40.1025 -101.8314 257° West 406 467 36,000  Level Denver Center
Tue 10:12:10 AM 40.0742 -101.9908 257° West 403 464 36,000  Level Denver Center
Tue 10:13:11 AM 40.0494 -102.1256 257° West 400 460 36,000  Level Denver Center
Tue 10:14:50 AM 40.0058 -102.3589 256° West 404 465 36,000  Level Salt Center
Tue 10:15:14 AM 39.9950 -102.4214 257° West 402 463 36,000  Level Denver Center
Tue 10:16:15 AM 39.9711 -102.5567 257° West 400 460 36,000  Level Denver Center
Tue 10:17:17 AM 39.9411 -102.7147 256° West 404 465 36,000  Level Denver Center
Tue 10:18:30 AM 39.9142 -102.8558 256° West 398 458 36,000  Level Denver Center
Tue 10:19:32 AM 39.8836 -103.0217 257° West 401 461 36,000  Level Denver Center
Tue 10:20:33 AM 39.8556 -103.1608 255° West 397 457 36,000  Level Denver Center
Tue 10:21:34 AM 39.8294 -103.3019 256° West 398 458 36,000  Level Denver Center
Tue 10:22:36 AM 39.8019 -103.4456 256° West 405 466 36,000  Level Denver Center
Tue 10:23:37 AM 39.7733 -103.5875 255° West 403 464 36,000  Level Denver Center
Tue 10:24:38 AM 39.7461 -103.7317 256° West 407 468 36,000  Level Denver Center
Tue 10:25:40 AM 39.7178 -103.8767 256° West 408 470 36,000  Level Denver Center
Tue 10:26:41 AM 39.6892 -104.0194 255° West 404 465 36,000  Level Denver Center
Tue 10:27:42 AM 39.6608 -104.1558 255° West 391 450 36,000  Level Denver Center
Tue 10:28:44 AM 39.6281 -104.3236 256° West 403 464 36,000  Level Denver Center
Tue 10:29:45 AM 39.5994 -104.4647 255° West 402 463 36,000  Level Denver Center
Tue 10:30:47 AM 39.5708 -104.6100 256° West 408 470 36,000  Level Denver Center
Tue 10:31:48 AM 39.5392 -104.7553 254° West 420 483 36,000  Level Denver Center
Tue 10:32:49 AM 39.5119 -104.8819 254° West 408 470 36,000  Level Denver Center
Tue 10:33:51 AM 39.4817 -105.0272 255° West 414 476 36,000  Level Denver Center
Tue 10:34:52 AM 39.4461 -105.1956 255° West 409 471 36,000  Level Denver Center
Tue 10:35:53 AM 39.4142 -105.3450 255° West 422 486 36,000  Level Denver Center
Tue 10:36:55 AM 39.3842 -105.4900 255° West 414 476 36,000  Level Denver Center
Tue 10:37:56 AM 39.3528 -105.6372 255° West 418 481 36,000  Level Denver Center
Tue 10:38:58 AM 39.3200 -105.7833 254° West 420 483 36,000  Level Denver Center
Tue 10:39:59 AM 39.2881 -105.9303 254° West 420 483 36,000  Level Denver Center
Tue 10:41:01 AM 39.2561 -106.0767 254° West 420 483 36,000  Level Denver Center
Tue 10:42:02 AM 39.2244 -106.2253 255° West 425 489 36,000  Level Denver Center
Tue 10:43:04 AM 39.1939 -106.3639 254° West 422 486 36,000  Level Denver Center
Tue 10:44:05 AM 39.1625 -106.5050 254° West 427 491 36,000  Level Denver Center
Tue 10:45:07 AM 39.1242 -106.6700 253° West 431 496 36,000  Level Denver Center
Tue 10:46:08 AM 39.0878 -106.8358 254° West 431 496 36,000  Level Denver Center
Tue 10:47:10 AM 39.0533 -106.9817 253° West 442 509 36,000  Level Denver Center
Tue 10:48:11 AM 39.0147 -107.1489 253° West 437 503 36,000  Level Denver Center
Tue 10:49:13 AM 38.9808 -107.2956 253° West 443 510 36,000  Level Denver Center
Tue 10:50:15 AM 38.9461 -107.4408 253° West 443 510 36,000  Level Denver Center
Tue 10:51:16 AM 38.9069 -107.6089 253° West 440 506 36,000  Level Denver Center
Tue 10:52:18 AM 38.8733 -107.7539 253° West 440 506 36,000  Level Denver Center
Tue 10:53:20 AM 38.8333 -107.9231 253° West 443 510 36,000  Level Denver Center
Tue 10:54:21 AM 38.7989 -108.0678 253° West 443 510 36,000  Level Denver Center
Tue 10:55:23 AM 38.7639 -108.2122 253° West 443 510 36,000  Level Denver Center
Tue 10:56:25 AM 38.7236 -108.3811 253° West 444 511 36,000  Level Denver Center
Tue 10:57:26 AM 38.6886 -108.5272 253° West 445 512 36,000  Level Denver Center
Tue 10:58:28 AM 38.6453 -108.6972 252° West 449 517 36,000  Level Denver Center
Tue 10:59:30 AM 38.6092 -108.8431 252° West 447 514 36,000  Level Denver Center
Tue 11:00:32 AM 38.5725 -108.9889 252° West 447 514 36,000  Level Denver Center
Tue 11:01:33 AM 38.5311 -109.1608 253° West 453 521 36,000  Level Denver Center
Tue 11:02:35 AM 38.4936 -109.3067 252° West 452 520 36,000  Level Denver Center
Tue 11:03:37 AM 38.4506 -109.4742 252° West 446 513 36,000  Level Denver Center
Tue 11:04:39 AM 38.4131 -109.6219 252° West 451 519 36,000  Level Denver Center
Tue 11:05:40 AM 38.3686 -109.7911 252° West 451 519 36,000  Level Denver Center
Tue 11:06:42 AM 38.3319 -109.9369 252° West 449 517 36,000  Level Denver Center
Tue 11:07:44 AM 38.2939 -110.0825 252° West 452 520 36,000  Level Denver Center
Tue 11:08:46 AM 38.2494 -110.2494 251° West 445 512 36,000  Level Denver Center
Tue 11:09:48 AM 38.2119 -110.3933 252° West 447 514 36,000  Level Denver Center
Tue 11:10:49 AM 38.1678 -110.5597 251° West 444 511 36,000  Level Denver Center
Tue 11:11:51 AM 38.1292 -110.7039 251° West 448 516 36,000 -290 Level Denver Center
Tue 11:12:53 AM 38.0733 -110.8653 246° West 454 522 35,400 -726 Descending Denver Center
Tue 11:13:55 AM 38.0142 -110.9983 241° Southwest 453 521 34,500 -919 Descending Denver Center
Tue 11:14:57 AM 37.9542 -111.1344 241° Southwest 446 513 33,500 -919 Descending Denver Center
Tue 11:15:59 AM 37.8914 -111.2742 240° Southwest 455 524 32,600 -726 Descending Denver Center
Tue 11:17:01 AM 37.8283 -111.4164 241° Southwest 462 532 32,000 -265 Descending Denver Center
Tue 11:18:15 AM 37.7408 -111.6083 240° Southwest 454 522 32,000  Level Denver Center
Tue 11:19:17 AM 37.6781 -111.7475 240° Southwest 457 526 32,000  Level Denver Center
Tue 11:20:19 AM 37.6144 -111.8867 240° Southwest 458 527 32,000  Level Denver Center
Tue 11:21:21 AM 37.5508 -112.0261 240° Southwest 459 528 32,000  Level Denver Center
Tue 11:22:20 AM 37.4875 -112.1664 240° Southwest 460 529 32,000 -99 Level Salt Center
Tue 11:23:22 AM 37.4222 -112.3064 240° Southwest 461 531 31,800 -629 Descending Salt Center
Tue 11:24:24 AM 37.3589 -112.4442 240° Southwest 457 526 30,700 -1,122 Descending Salt Center
Tue 11:25:25 AM 37.2992 -112.5700 239° Southwest 429 494 29,500 -1,091 Descending Salt Center
Tue 11:25:41 AM 37.2869 -112.5928 236° Southwest 414 476 29,300 -968 Descending Los Center
Tue 11:26:27 AM 37.2436 -112.6881 240° Southwest 400 460 28,500 -722 Descending Salt Center
Tue 11:27:29 AM 37.1753 -112.8314 239° Southwest 396 456 28,000 -244 Descending Salt Center
Tue 11:28:30 AM 37.1200 -112.9494 240° Southwest 393 452 28,000  Level Salt Center
Tue 11:28:46 AM 37.1089 -112.9722 239° Southwest 390 449 28,000 -78 Level Los Center
Tue 11:29:47 AM 37.0542 -113.0883 239° Southwest 387 445 27,900 -528 Descending Los Center
Tue 11:30:51 AM 36.9992 -113.2022 239° Southwest 382 440 26,900 -968 Descending Los Center
Tue 11:31:51 AM 36.9442 -113.3167 239° Southwest 384 442 25,900 -968 Descending Los Center
Tue 11:32:55 AM 36.8908 -113.4292 239° Southwest 378 435 24,900 -968 Descending Los Center
Tue 11:33:55 AM 36.8217 -113.5739 239° Southwest 402 463 23,900 -968 Descending Los Center
Tue 11:34:59 AM 36.7625 -113.6969 239° Southwest 413 475 22,900 -968 Descending Los Center
Tue 11:35:59 AM 36.7031 -113.8164 238° Southwest 408 470 21,900 -1,161 Descending Los Center
Tue 11:37:03 AM 36.6431 -113.9389 239° Southwest 412 474 20,500 -1,536 Descending Los Center
Tue 11:38:04 AM 36.5942 -114.0400 239° Southwest 421 484 18,700 -2,304 Descending Los Center
Tue 11:39:08 AM 36.5236 -114.1914 240° Southwest 422 486 15,700 -2,765 Descending Los Center
Tue 11:39:59 AM 36.4714 -114.3225 244° Southwest 396 456 13,400 -1,736 Descending Los Center
Tue 11:41:09 AM 36.4103 -114.4397 237° Southwest 386 444 12,200 -582 Descending Los Center
Tue 11:42:13 AM 36.3283 -114.4864 205° Southwest 308 354 12,100 -96 Descending Los Center
Tue 11:43:14 AM 36.2506 -114.4711 171° South 315 362 12,000 -446 Descending Los Center
Tue 11:44:14 AM 36.1683 -114.4578 173° South 279 321 11,200 -905 Descending Los Center
Tue 11:45:20 AM 36.0825 -114.4597 181° South 282 325 10,100 -898 Descending Los Center
Tue 11:46:21 AM 36.0703 -114.5414 260° West 251 289 9,300 -984 Descending Los Center
Tue 11:47:22 AM 36.0733 -114.6339 272° West 239 275 8,100 -581 Descending Los Center
Tue 11:48:25 AM 36.0722 -114.7050 269° West 236 272 8,100 -198 Level Los Center
Tue 11:49:23 AM 36.0744 -114.7856 272° West 216 249 7,700 -793 Descending Los Center
Tue 11:50:26 AM 36.0744 -114.8547 270° West 202 232 6,500 -1,108 Descending Los Center
Tue 11:51:33 AM 36.0722 -114.9283 268° West 203 234 5,300 -1,100 Descending Los Center
Tue 11:52:26 AM 36.0736 -114.9881 272° West 185 213 4,300 -1,053 Descending Los Center
Tue 11:53:27 AM 36.0733 -115.0467 270° West 167 192 3,300 -738 Descending Los Center
Tue 11:54:36 AM 36.0731 -115.0903 270° West 170 196 2,700 -541 Descending Los Center
Tue 11:55:40 AM 36.0736 -115.1492 271° West 157 181 2,100 -563 Descending Los Center
Tue 11:57:00 AM 36.0667 -115.1500 219° Southwest  Level FlightAware

Login

Don't have an account? Register now (free) for customized features, flight alerts, and more!